Time;durP1;ratioP1;P1;durP2;ratioP2;P2;SDS_P1;SDS_P2;PMS_P1;PMS_P2;Temp;Humidity;BMP_temperature;BMP_pressure;BME280_temperature;BME280_humidity;BME280_pressure;Samples;Min_cycle;Max_cycle;Signal;HPM_P1;HPM_P2
2022/08/07 00:00:27;;;;;;;6.55;4.22;;;;;;;12.30;82.38;102674.16;5113727;28;20062;-73
2022/08/07 00:02:56;;;;;;;6.78;4.38;;;;;;;12.33;82.28;102683.53;5112657;28;20028;-70
2022/08/07 00:05:23;;;;;;;6.05;4.45;;;;;;;12.23;83.15;102693.41;5113697;28;20032;-71
2022/08/07 00:07:48;;;;;;;7.03;4.60;;;;;;;12.18;83.38;102682.38;5113909;28;20027;-73
2022/08/07 00:10:14;;;;;;;7.75;4.55;;;;;;;12.15;82.85;102689.44;5113759;28;20110;-73
2022/08/07 00:12:40;;;;;;;7.55;4.82;;;;;;;12.12;83.35;102684.41;5113851;28;20015;-73
2022/08/07 00:15:06;;;;;;;9.85;5.50;;;;;;;12.05;83.39;102676.88;5113459;28;20470;-74
2022/08/07 00:17:31;;;;;;;8.07;5.30;;;;;;;12.05;83.34;102671.69;5113452;28;20024;-73
2022/08/07 00:19:56;;;;;;;7.15;4.90;;;;;;;12.03;83.64;102672.66;5112139;28;20075;-72
2022/08/07 00:22:22;;;;;;;9.10;5.47;;;;;;;12.00;84.20;102673.63;5113758;28;20161;-73
2022/08/07 00:24:47;;;;;;;8.32;5.45;;;;;;;11.99;84.58;102668.47;5112255;28;20023;-73
2022/08/07 00:27:12;;;;;;;6.70;4.78;;;;;;;11.96;83.86;102671.22;5113564;28;20023;-74
2022/08/07 00:29:37;;;;;;;7.10;5.03;;;;;;;11.87;84.29;102656.88;5113268;28;20028;-72
2022/08/07 00:32:05;;;;;;;8.02;5.55;;;;;;;11.88;84.58;102665.47;5113429;28;20028;-72
2022/08/07 00:34:30;;;;;;;8.40;5.60;;;;;;;11.84;84.67;102658.75;5112819;28;20059;-72
2022/08/07 00:36:56;;;;;;;9.40;6.00;;;;;;;11.69;85.00;102627.34;5113411;28;20028;-72
2022/08/07 00:39:21;;;;;;;7.63;5.18;;;;;;;11.82;84.95;102653.63;5113178;28;20028;-72
2022/08/07 00:41:54;;;;;;;13.05;6.25;;;;;;;11.82;85.34;102645.03;5113256;28;20478;-73
2022/08/07 00:44:20;;;;;;;8.60;5.47;;;;;;;11.84;84.84;102646.66;5111658;28;20108;-72
2022/08/07 00:46:45;;;;;;;9.43;5.57;;;;;;;11.70;84.83;102635.94;5112857;28;20428;-72
2022/08/07 00:49:11;;;;;;;8.25;5.43;;;;;;;11.76;84.75;102646.91;5112258;28;20043;-73
2022/08/07 00:51:37;;;;;;;7.90;5.70;;;;;;;11.74;85.32;102646.13;5112981;28;20459;-73
2022/08/07 00:54:02;;;;;;;8.55;5.45;;;;;;;11.59;84.84;102636.34;5112865;28;20031;-74
2022/08/07 00:56:28;;;;;;;8.30;5.10;;;;;;;11.55;84.94;102628.78;5113103;28;20031;-75
2022/08/07 00:58:55;;;;;;;8.07;5.55;;;;;;;11.50;84.87;102628.94;5113155;28;20023;-75
2022/08/07 01:01:21;;;;;;;10.05;5.55;;;;;;;11.42;84.91;102616.31;5112646;28;20106;-78
2022/08/07 01:03:50;;;;;;;7.75;5.45;;;;;;;11.56;85.33;102641.66;5112973;28;20106;-78
2022/08/07 01:06:15;;;;;;;9.98;6.53;;;;;;;11.43;85.76;102630.09;5113025;28;20030;-78
2022/08/07 01:08:41;;;;;;;11.25;6.47;;;;;;;11.51;86.06;102642.75;5113111;28;20382;-78
2022/08/07 01:11:07;;;;;;;11.48;6.80;;;;;;;11.46;86.04;102635.16;5113044;28;20028;-78
2022/08/07 01:13:33;;;;;;;10.25;6.60;;;;;;;11.41;86.11;102644.84;5112717;28;20089;-76
2022/08/07 01:16:00;;;;;;;8.85;6.00;;;;;;;11.34;85.98;102630.44;5112632;28;20048;-77
2022/08/07 01:18:26;;;;;;;9.80;6.22;;;;;;;11.34;86.12;102631.28;5112857;28;20023;-79
2022/08/07 01:21:14;;;;;;;9.68;6.88;;;;;;;11.37;86.88;102633.75;5112556;28;20118;-78
2022/08/07 01:23:42;;;;;;;13.32;6.55;;;;;;;11.35;87.03;102629.53;5112848;28;20055;-78
2022/08/07 01:26:10;;;;;;;11.68;7.53;;;;;;;11.32;87.01;102621.91;5112658;28;20482;-78
2022/08/07 01:28:36;;;;;;;10.50;6.50;;;;;;;11.28;86.61;102618.56;5112647;28;20072;-74
2022/08/07 01:31:03;;;;;;;12.15;6.75;;;;;;;11.12;86.81;102599.38;5112554;28;20115;-72
2022/08/07 01:33:29;;;;;;;12.32;7.65;;;;;;;11.23;86.88;102623.09;5112362;28;20050;-78
2022/08/07 01:35:56;;;;;;;12.27;7.28;;;;;;;11.16;86.90;102611.28;5112709;28;20036;-73
2022/08/07 01:38:22;;;;;;;11.40;7.50;;;;;;;11.15;87.23;102600.09;5112671;28;20102;-77
2022/08/07 01:40:49;;;;;;;10.57;7.53;;;;;;;11.12;88.15;102600.22;5112723;28;20627;-73
2022/08/07 01:43:14;;;;;;;9.85;7.22;;;;;;;11.14;88.21;102602.72;5112476;28;20417;-79
2022/08/07 01:45:41;;;;;;;10.48;7.28;;;;;;;11.22;88.06;102617.97;5112400;28;20031;-77
2022/08/07 01:48:07;;;;;;;12.10;7.43;;;;;;;11.18;87.42;102610.31;5112360;28;20046;-78
2022/08/07 01:50:36;;;;;;;12.57;7.95;;;;;;;11.13;87.64;102613.97;5112648;28;20455;-78
2022/08/07 01:53:02;;;;;;;11.57;7.90;;;;;;;11.05;88.15;102601.31;5112554;28;20098;-76
2022/08/07 01:55:35;;;;;;;12.32;7.28;;;;;;;10.81;88.40;102566.84;5112631;28;20034;-78
2022/08/07 01:58:05;;;;;;;11.90;7.65;;;;;;;10.98;88.27;102607.59;5112286;28;20027;-80
2022/08/07 02:00:31;;;;;;;9.83;7.37;;;;;;;10.87;88.48;102576.16;5115531;28;20077;-78
2022/08/07 02:03:05;;;;;;;12.15;8.10;;;;;;;10.99;88.82;102604.13;5116258;28;20024;-78
2022/08/07 02:05:55;;;;;;;11.93;8.32;;;;;;;11.08;88.40;102610.72;5116240;28;20106;-79
2022/08/07 02:08:23;;;;;;;13.45;8.32;;;;;;;11.02;88.70;102606.63;5053449;28;20535;-80
2022/08/07 02:10:52;;;;;;;11.30;7.82;;;;;;;10.89;89.28;102587.25;5053134;28;20091;-79
2022/08/07 02:13:20;;;;;;;10.30;7.72;;;;;;;10.87;89.33;102591.66;5053077;28;20104;-78
2022/08/07 02:15:47;;;;;;;13.50;8.00;;;;;;;10.90;88.93;102599.28;5052960;28;20132;-77
2022/08/07 02:18:14;;;;;;;9.77;7.10;;;;;;;11.00;89.03;102610.13;5053204;28;20021;-78
2022/08/07 02:20:42;;;;;;;11.85;7.70;;;;;;;10.98;89.17;102611.94;5053047;28;20045;-79
2022/08/07 02:23:09;;;;;;;12.73;7.82;;;;;;;10.84;88.91;102596.94;5053150;28;20112;-77
2022/08/07 02:25:37;;;;;;;9.63;6.85;;;;;;;10.86;89.14;102603.72;5052819;28;20079;-77
2022/08/07 02:28:05;;;;;;;11.02;7.78;;;;;;;10.85;89.55;102596.88;5052947;28;20037;-78
2022/08/07 02:30:33;;;;;;;11.57;7.85;;;;;;;10.89;89.98;102597.59;5053056;28;20416;-77
2022/08/07 02:32:59;;;;;;;10.82;8.30;;;;;;;10.78;89.74;102590.22;5052945;28;20127;-76
2022/08/07 02:35:26;;;;;;;11.95;8.18;;;;;;;10.73;89.92;102587.00;5052682;28;20416;-78
2022/08/07 02:37:52;;;;;;;11.93;8.23;;;;;;;10.78;90.01;102602.31;5052853;28;20033;-81
2022/08/07 02:40:18;;;;;;;12.57;8.52;;;;;;;10.79;90.09;102598.81;5052695;28;20040;-80
2022/08/07 02:42:45;;;;;;;10.70;8.13;;;;;;;10.77;89.90;102598.03;5052547;28;20029;-78
2022/08/07 02:45:13;;;;;;;12.20;8.27;;;;;;;10.70;90.17;102578.47;5081432;28;20067;-79
2022/08/07 02:47:39;;;;;;;11.20;8.13;;;;;;;10.79;90.40;102596.25;5115110;28;20498;-77
2022/08/07 02:50:05;;;;;;;10.80;8.18;;;;;;;10.75;90.43;102597.25;5115448;28;20028;-77
2022/08/07 02:52:41;;;;;;;11.30;8.00;;;;;;;10.71;90.18;102585.34;5115180;28;20370;-79
2022/08/07 02:55:12;;;;;;;11.23;8.18;;;;;;;10.64;90.66;102574.38;5115201;28;20027;-79
2022/08/07 02:57:39;;;;;;;10.05;7.72;;;;;;;10.70;90.47;102578.47;5115176;28;20027;-78
2022/08/07 03:00:06;;;;;;;12.20;8.30;;;;;;;10.57;90.25;102573.75;5115264;28;20019;-78
2022/08/07 03:02:34;;;;;;;11.00;8.27;;;;;;;10.63;90.56;102576.13;5115038;28;20356;-78
2022/08/07 03:05:01;;;;;;;11.23;8.18;;;;;;;10.63;90.54;102589.06;5115102;28;20099;-75
2022/08/07 03:07:28;;;;;;;11.65;8.65;;;;;;;10.56;90.59;102572.06;5115040;28;20024;-77
2022/08/07 03:09:54;;;;;;;10.93;7.93;;;;;;;10.52;90.50;102572.22;5114820;28;20036;-78
2022/08/07 03:12:20;;;;;;;10.85;8.40;;;;;;;10.60;90.74;102593.47;5114074;28;20387;-77
2022/08/07 03:14:45;;;;;;;11.32;8.30;;;;;;;10.57;91.00;102591.84;5114734;28;20028;-79
2022/08/07 03:17:11;;;;;;;10.93;8.30;;;;;;;10.48;90.95;102587.00;5114654;28;20035;-79
2022/08/07 03:19:37;;;;;;;13.15;8.57;;;;;;;10.46;91.14;102580.19;5114886;28;20028;-78
2022/08/07 03:22:06;;;;;;;11.65;8.48;;;;;;;10.43;90.78;102583.72;5114634;28;20031;-76
2022/08/07 03:24:33;;;;;;;11.57;8.68;;;;;;;10.49;91.18;102598.16;5114608;28;20024;-78
2022/08/07 03:27:02;;;;;;;12.25;8.38;;;;;;;10.43;90.97;102594.06;5114679;28;20030;-79
2022/08/07 03:29:39;;;;;;;11.95;8.82;;;;;;;10.36;91.48;102582.25;5114573;28;20110;-78
2022/08/07 03:32:07;;;;;;;10.68;7.85;;;;;;;10.15;91.18;102554.53;5114316;28;20467;-80
2022/08/07 03:34:35;;;;;;;10.95;7.85;;;;;;;10.32;91.48;102597.00;5114138;28;20134;-76
2022/08/07 03:37:02;;;;;;;11.88;9.25;;;;;;;10.36;91.35;102587.41;5114400;28;20031;-79
2022/08/07 03:39:32;;;;;;;12.07;8.15;;;;;;;10.37;91.67;102593.41;5114392;28;20024;-79
2022/08/07 03:41:58;;;;;;;10.80;7.97;;;;;;;10.26;91.41;102571.38;5114412;28;20016;-78
2022/08/07 03:44:24;;;;;;;12.95;8.43;;;;;;;10.33;91.43;102578.03;5114238;28;20479;-78
2022/08/07 03:46:50;;;;;;;13.90;9.07;;;;;;;10.34;91.91;102584.88;5114159;28;20066;-78
2022/08/07 03:49:15;;;;;;;12.13;9.02;;;;;;;10.16;92.51;102551.91;5114013;28;20372;-78
2022/08/07 03:51:42;;;;;;;14.75;8.75;;;;;;;10.30;92.06;102580.69;5112653;28;20101;-79
2022/08/07 03:54:09;;;;;;;12.30;9.07;;;;;;;10.17;92.60;102568.25;5112619;28;20088;-79
2022/08/07 03:56:37;;;;;;;11.52;8.75;;;;;;;10.17;92.09;102579.41;5114080;28;20057;-80
2022/08/07 03:59:04;;;;;;;11.75;8.27;;;;;;;10.25;92.29;102586.94;5113997;28;20421;-79
2022/08/07 04:01:31;;;;;;;12.55;9.55;;;;;;;10.21;92.79;102593.03;5114073;28;20463;-77
2022/08/07 04:03:56;;;;;;;12.20;8.70;;;;;;;10.18;92.68;102594.00;5113757;28;20110;-79
2022/08/07 04:06:22;;;;;;;12.70;9.23;;;;;;;10.23;92.95;102593.91;5113762;28;20102;-79
2022/08/07 04:08:48;;;;;;;12.73;9.38;;;;;;;10.25;93.19;102600.69;5113790;28;20119;-79
2022/08/07 04:11:14;;;;;;;12.63;9.30;;;;;;;10.22;92.84;102598.19;5113725;28;20447;-79
2022/08/07 04:13:40;;;;;;;13.25;9.18;;;;;;;10.24;92.49;102603.31;5113618;28;20024;-76
2022/08/07 04:16:06;;;;;;;14.77;8.65;;;;;;;10.23;92.53;102609.38;5113728;28;20024;-78
2022/08/07 04:18:31;;;;;;;10.57;8.55;;;;;;;10.24;92.61;102611.06;5113339;28;20024;-78
2022/08/07 04:20:57;;;;;;;12.38;9.50;;;;;;;10.24;92.38;102616.22;5113670;28;20027;-79
2022/08/07 04:23:24;;;;;;;13.65;9.50;;;;;;;10.25;92.72;102618.75;5113429;28;20524;-78
2022/08/07 04:25:51;;;;;;;11.98;8.68;;;;;;;10.29;92.50;102620.34;5113485;28;20036;-80
2022/08/07 04:28:17;;;;;;;13.63;9.80;;;;;;;10.28;92.20;102615.22;5113763;28;20015;-78
2022/08/07 04:30:47;;;;;;;14.68;9.77;;;;;;;10.22;92.52;102597.34;5113516;28;20467;-79
2022/08/07 04:33:14;;;;;;;14.25;9.18;;;;;;;10.32;92.37;102616.78;5113317;28;20049;-78
2022/08/07 04:35:39;;;;;;;14.77;9.75;;;;;;;10.20;93.15;102588.78;5113302;28;20096;-78
2022/08/07 04:38:06;;;;;;;14.98;9.38;;;;;;;10.28;92.80;102602.31;5113199;28;20118;-78
2022/08/07 04:40:32;;;;;;;14.02;8.88;;;;;;;10.28;92.65;102597.16;5113419;28;20023;-78
2022/08/07 04:42:58;;;;;;;12.70;9.48;;;;;;;10.37;92.73;102612.34;5112302;28;20027;-79
2022/08/07 04:45:31;;;;;;;15.10;10.60;;;;;;;10.48;93.17;102614.56;5113176;28;20027;-79
2022/08/07 04:48:08;;;;;;;12.27;9.13;;;;;;;10.43;92.47;102604.41;5113124;28;20054;-78
2022/08/07 04:50:40;;;;;;;13.68;9.25;;;;;;;10.50;92.44;102621.34;5112982;28;20030;-78
2022/08/07 04:53:20;;;;;;;12.05;8.70;;;;;;;10.46;92.35;102609.44;5112958;28;20028;-79
2022/08/07 04:55:58;;;;;;;14.55;8.90;;;;;;;10.63;92.23;102624.38;5113130;28;20387;-77
2022/08/07 04:58:42;;;;;;;13.90;9.77;;;;;;;10.64;92.16;102618.31;5112879;28;20046;-80
2022/08/07 05:01:36;;;;;;;13.45;9.05;;;;;;;10.70;92.48;102622.41;5112924;28;20024;-78
2022/08/07 05:04:13;;;;;;;15.55;10.63;;;;;;;10.83;93.94;102628.84;5112864;28;20498;-76
2022/08/07 05:06:46;;;;;;;14.52;9.93;;;;;;;10.91;93.41;102624.22;5113097;28;20058;-81
2022/08/07 05:09:49;;;;;;;14.48;10.20;;;;;;;11.03;93.14;102626.41;5113008;28;20084;-79
2022/08/07 05:12:21;;;;;;;10.48;6.68;;;;;;;11.68;94.18;102614.47;5111533;28;20394;-78
2022/08/07 05:14:47;;;;;;;;;;;;;;;11.97;92.31;102627.13;5113058;28;20053;-82
2022/08/07 05:17:17;;;;;;;11.38;7.20;;;;;;;12.70;90.71;102625.81;5112865;28;19912;-82
2022/08/07 05:19:48;;;;;;;11.15;7.40;;;;;;;13.26;87.83;102625.06;5112619;28;20027;-83
2022/08/07 05:22:16;;;;;;;13.35;7.68;;;;;;;13.44;84.60;102595.69;5112717;28;20020;-85
2022/08/07 05:24:44;;;;;;;10.65;7.30;;;;;;;14.06;82.39;102610.03;5111156;28;20165;-83
2022/08/07 05:27:12;;;;;;;9.32;7.13;;;;;;;14.61;79.54;102629.81;5113065;28;20459;-86
2022/08/07 05:29:40;;;;;;;10.45;7.00;;;;;;;15.21;77.11;102624.91;5112651;28;20027;-86
2022/08/07 05:32:07;;;;;;;10.02;6.43;;;;;;;15.89;74.34;102614.25;5111495;28;20023;-83
2022/08/07 05:34:34;;;;;;;10.38;6.68;;;;;;;16.09;72.15;102621.75;5113990;28;20074;-77
2022/08/07 05:37:01;;;;;;;11.10;6.97;;;;;;;16.32;71.63;102623.88;5117240;28;20030;-78
2022/08/07 05:39:26;;;;;;;9.70;6.70;;;;;;;16.78;69.66;102621.16;5116920;28;20395;-87
2022/08/07 05:41:52;;;;;;;9.23;6.13;;;;;;;16.84;69.02;102633.00;5116609;28;20036;-84
2022/08/07 05:44:19;;;;;;;9.73;6.40;;;;;;;17.41;67.27;102625.94;5116991;28;20028;-82
2022/08/07 05:46:47;;;;;;;9.38;6.47;;;;;;;18.46;63.64;102625.19;5116750;28;20026;-75
2022/08/07 05:49:13;;;;;;;10.50;6.65;;;;;;;19.56;60.17;102626.22;5116659;28;20046;-86
2022/08/07 05:51:42;;;;;;;12.13;6.75;;;;;;;20.18;57.18;102596.31;5116389;28;20024;-86
2022/08/07 05:54:07;;;;;;;10.23;6.90;;;;;;;21.04;55.02;102620.25;5116753;28;20034;-84
2022/08/07 05:56:33;;;;;;;10.32;7.55;;;;;;;21.50;53.45;102621.84;5116154;28;20459;-74
2022/08/07 05:59:01;;;;;;;8.73;6.10;;;;;;;22.29;51.00;102627.59;5116616;28;20114;-75
2022/08/07 06:01:28;;;;;;;10.48;7.05;;;;;;;22.61;49.74;102630.97;5116460;28;20024;-79
2022/08/07 06:03:55;;;;;;;8.20;5.75;;;;;;;23.21;48.13;102632.88;5116282;28;20485;-81
2022/08/07 06:06:22;;;;;;;9.60;6.82;;;;;;;23.26;47.23;102636.75;5116294;28;20027;-82
2022/08/07 06:08:48;;;;;;;11.20;6.45;;;;;;;23.83;46.04;102629.06;5116205;28;20118;-83
2022/08/07 06:11:15;;;;;;;8.85;5.30;;;;;;;24.04;45.60;102611.28;5115985;28;20107;-84
2022/08/07 06:13:40;;;;;;;7.53;5.22;;;;;;;24.41;44.18;102627.19;5115928;28;20027;-84
2022/08/07 06:16:07;;;;;;;11.07;7.07;;;;;;;24.92;43.39;102636.44;5114863;28;20046;-78
2022/08/07 06:18:33;;;;;;;10.77;6.70;;;;;;;24.71;43.10;102628.75;5116151;28;20024;-74
2022/08/07 06:21:03;;;;;;;8.93;6.13;;;;;;;25.25;42.97;102637.66;5116011;28;20024;-77
2022/08/07 06:23:30;;;;;;;8.77;6.35;;;;;;;25.56;40.83;102635.50;5115860;28;20024;-75
2022/08/07 06:25:57;;;;;;;7.45;5.38;;;;;;;25.61;40.89;102616.53;5115856;28;20027;-74
2022/08/07 06:28:23;;;;;;;10.00;6.32;;;;;;;25.63;40.60;102638.38;5115703;28;20024;-75
2022/08/07 06:30:48;;;;;;;9.00;6.70;;;;;;;25.82;40.33;102635.59;5115866;28;20102;-75
2022/08/07 06:33:13;;;;;;;9.80;6.38;;;;;;;26.12;39.52;102628.22;5115803;28;20367;-74
2022/08/07 06:35:39;;;;;;;10.82;5.63;;;;;;;26.21;39.87;102628.13;5115661;28;20486;-77
2022/08/07 06:38:05;;;;;;;10.02;5.35;;;;;;;26.72;38.60;102626.44;5115500;28;20076;-74
2022/08/07 06:40:46;;;;;;;8.77;6.47;;;;;;;26.80;39.09;102615.03;5115994;28;20387;-75
2022/08/07 06:43:12;;;;;;;9.35;6.18;;;;;;;26.85;38.09;102602.16;5115734;28;20030;-81
2022/08/07 06:45:38;;;;;;;8.38;5.90;;;;;;;27.06;37.13;102621.13;5114195;28;20063;-78
2022/08/07 06:48:05;;;;;;;10.60;6.05;;;;;;;26.87;37.39;102576.28;5115448;28;20092;-75
2022/08/07 06:50:33;;;;;;;8.18;5.93;;;;;;;27.26;37.49;102612.88;5115380;28;20599;-78
2022/08/07 06:53:00;;;;;;;10.82;7.30;;;;;;;27.18;36.56;102605.72;5115301;28;20028;-91
2022/08/07 06:55:30;;;;;;;10.48;6.65;;;;;;;27.44;36.29;102593.19;5115406;28;20172;-89
2022/08/07 06:57:59;;;;;;;9.63;6.35;;;;;;;27.55;36.20;102607.94;5115271;28;20069;-73
2022/08/07 07:00:27;;;;;;;11.85;6.80;;;;;;;27.37;36.30;102599.28;5115206;28;20035;-75
2022/08/07 07:02:54;;;;;;;7.68;5.32;;;;;;;28.06;35.55;102610.41;5115311;28;20024;-77
2022/08/07 07:05:20;;;;;;;9.40;6.75;;;;;;;28.40;34.25;102592.41;5113097;28;20395;-74
2022/08/07 07:07:45;;;;;;;8.98;5.38;;;;;;;28.21;34.33;102608.72;5115045;28;20024;-76
2022/08/07 07:10:13;;;;;;;9.98;6.32;;;;;;;27.60;35.38;102613.56;5115255;28;20034;-76
2022/08/07 07:12:41;;;;;;;8.85;6.57;;;;;;;27.70;36.25;102608.94;5115052;28;20098;-79
2022/08/07 07:15:09;;;;;;;10.25;6.47;;;;;;;27.79;36.04;102606.28;5114969;28;20085;-75
2022/08/07 07:17:59;;;;;;;9.55;6.20;;;;;;;27.85;37.09;102608.28;5113630;28;20471;-77
2022/08/07 07:20:32;;;;;;;9.13;6.75;;;;;;;28.06;35.50;102615.72;5113353;28;20031;-75
2022/08/07 07:22:58;;;;;;;10.45;6.43;;;;;;;27.64;35.91;102617.56;5115419;28;20508;-75
2022/08/07 07:25:24;;;;;;;9.27;6.18;;;;;;;28.08;35.24;102611.06;5115507;28;20035;-76
2022/08/07 07:27:57;;;;;;;10.25;6.30;;;;;;;28.56;35.41;102612.81;5114742;28;20047;-77
2022/08/07 07:30:26;;;;;;;6.90;5.18;;;;;;;27.76;35.36;102580.91;5114553;28;20030;-78
2022/08/07 07:32:56;;;;;;;10.73;6.75;;;;;;;26.29;38.07;102606.16;5114751;28;20371;-77
2022/08/07 07:35:22;;;;;;;7.57;5.53;;;;;;;24.81;42.16;102610.22;5114074;28;20105;-81
2022/08/07 07:37:49;;;;;;;8.65;6.22;;;;;;;23.45;44.08;102610.44;5114455;28;20068;-77
2022/08/07 07:40:17;;;;;;;10.40;6.25;;;;;;;22.34;47.09;102601.72;5114490;28;20121;-75
2022/08/07 07:42:45;;;;;;;10.13;6.95;;;;;;;21.73;47.79;102609.47;5114451;28;20364;-88
2022/08/07 07:45:11;;;;;;;9.13;5.55;;;;;;;21.30;49.22;102604.22;5114167;28;20032;-76
2022/08/07 07:47:42;;;;;;;9.65;6.68;;;;;;;20.80;50.15;102609.88;5112467;28;20436;-89
2022/08/07 07:50:10;;;;;;;10.88;7.57;;;;;;;20.30;52.66;102606.69;5114338;28;20376;-77
2022/08/07 07:52:37;;;;;;;10.95;8.00;;;;;;;20.02;53.13;102599.22;5114090;28;20032;-83
2022/08/07 07:55:04;;;;;;;9.98;6.88;;;;;;;19.89;54.38;102609.81;5114045;28;20030;-83
2022/08/07 07:57:32;;;;;;;11.45;7.25;;;;;;;19.67;53.74;102602.69;5113822;28;20035;-76
2022/08/07 07:59:59;;;;;;;10.68;7.78;;;;;;;19.59;56.16;102607.66;5112140;28;20114;-75
2022/08/07 08:02:27;;;;;;;10.15;6.35;;;;;;;19.51;56.24;102586.38;5113972;28;20024;-76
2022/08/07 08:04:54;;;;;;;9.55;6.20;;;;;;;19.64;56.26;102599.44;5114143;28;20110;-75
2022/08/07 08:07:21;;;;;;;10.27;7.38;;;;;;;19.69;55.72;102606.03;5113793;28;20034;-75
2022/08/07 08:09:49;;;;;;;11.20;8.05;;;;;;;19.56;56.09;102605.25;5113888;28;20051;-78
2022/08/07 08:12:15;;;;;;;10.85;7.50;;;;;;;19.31;56.76;102571.28;5113775;28;20490;-74
2022/08/07 08:14:40;;;;;;;11.63;6.82;;;;;;;19.40;57.15;102599.44;5113527;28;20425;-71
2022/08/07 08:17:11;;;;;;;10.07;6.05;;;;;;;19.40;57.95;102586.34;5113812;28;20023;-75
2022/08/07 08:19:38;;;;;;;11.38;6.95;;;;;;;19.49;56.91;102602.22;5113537;28;20026;-74
2022/08/07 08:27:37;;;;;;;11.20;7.03;;;;;;;19.34;56.91;102578.91;5113763;28;20037;-77
2022/08/07 08:30:12;;;;;;;11.80;7.70;;;;;;;19.23;55.83;102602.41;5113334;28;20463;-79
2022/08/07 08:32:58;;;;;;;11.00;7.55;;;;;;;19.28;56.30;102605.56;5134031;27;20034;-74
2022/08/07 08:35:26;;;;;;;11.20;7.50;;;;;;;19.35;58.04;102604.16;5133871;27;20154;-76
2022/08/07 08:37:57;;;;;;;10.88;6.93;;;;;;;19.13;55.50;102594.38;5133704;27;20042;-77
2022/08/07 08:40:31;;;;;;;10.55;7.57;;;;;;;19.17;57.39;102596.69;5154203;27;20386;-79
2022/08/07 08:43:07;;;;;;;11.05;7.40;;;;;;;19.46;56.84;102612.06;5154571;27;20022;-74
2022/08/07 08:45:40;;;;;;;10.00;7.07;;;;;;;19.54;58.22;102591.38;5154410;27;20030;-72
2022/08/07 08:48:23;;;;;;;11.52;7.00;;;;;;;19.56;55.76;102600.00;5154365;27;20023;-75
2022/08/07 08:51:16;;;;;;;11.45;7.00;;;;;;;19.63;55.40;102588.13;5154490;27;20034;-71
2022/08/07 08:54:07;;;;;;;9.13;5.50;;;;;;;19.76;54.03;102606.41;5154190;27;20022;-74
2022/08/07 08:56:37;;;;;;;10.23;6.30;;;;;;;19.72;56.12;102599.72;5050201;28;20503;-74
2022/08/07 08:59:13;;;;;;;9.18;5.65;;;;;;;19.76;53.63;102603.78;5050307;28;20507;-73
2022/08/07 09:01:44;;;;;;;7.00;4.75;;;;;;;19.73;55.32;102581.25;5050307;28;20059;-73
2022/08/07 09:04:54;;;;;;;8.05;4.70;;;;;;;19.84;52.91;102601.44;5050357;28;20488;-77
2022/08/07 09:07:56;;;;;;;8.88;4.55;;;;;;;19.77;51.00;102597.63;5050080;28;20033;-73
2022/08/07 09:10:43;;;;;;;8.82;4.90;;;;;;;19.65;51.76;102583.59;5049764;28;20435;-73
2022/08/07 09:13:30;;;;;;;7.05;4.50;;;;;;;19.84;52.30;102596.19;5050167;28;20057;-72
2022/08/07 09:16:04;;;;;;;9.40;5.40;;;;;;;19.95;52.79;102590.16;5050089;28;20560;-73
2022/08/07 09:19:01;;;;;;;9.10;5.32;;;;;;;19.96;51.92;102595.31;5048537;28;20112;-73
2022/08/07 09:21:44;;;;;;;7.95;4.82;;;;;;;20.00;53.55;102585.41;5050550;28;20158;-76
2022/08/07 09:24:22;;;;;;;10.10;4.70;;;;;;;20.07;52.92;102570.88;5033285;28;20543;-73
2022/08/07 09:26:57;;;;;;;7.82;4.55;;;;;;;20.18;51.43;102581.41;5049710;28;20053;-76
2022/08/07 09:29:27;;;;;;;10.63;4.55;;;;;;;20.12;49.04;102584.47;5050053;28;20487;-73
2022/08/07 09:32:11;;;;;;;7.82;4.22;;;;;;;20.19;51.52;102584.84;5049388;28;20065;-75
2022/08/07 09:34:48;;;;;;;9.68;5.03;;;;;;;20.15;49.03;102572.91;5146682;27;20038;-76
2022/08/07 09:37:40;;;;;;;8.05;4.30;;;;;;;20.12;49.44;102568.75;5153764;27;20454;-81
2022/08/07 09:40:45;;;;;;;8.88;4.05;;;;;;;20.34;51.68;102581.88;5139788;27;20370;-81
2022/08/07 09:43:32;;;;;;;7.40;3.55;;;;;;;20.36;47.72;102586.22;5153809;27;20027;-71
2022/08/07 09:46:32;;;;;;;8.13;3.47;;;;;;;20.22;46.96;102585.44;5153893;27;20107;-77
2022/08/07 09:49:15;;;;;;;4.85;2.78;;;;;;;20.19;48.02;102577.00;5153752;27;20022;-76
2022/08/07 09:51:49;;;;;;;6.05;3.00;;;;;;;20.21;48.71;102572.44;5153958;27;20034;-74
2022/08/07 09:54:28;;;;;;;6.93;3.78;;;;;;;20.32;47.79;102573.31;5153259;27;20469;-77
2022/08/07 09:57:19;;;;;;;8.80;4.63;;;;;;;20.33;47.25;102566.25;5153635;27;20050;-73
2022/08/07 10:00:03;;;;;;;8.00;3.53;;;;;;;20.33;48.50;102561.84;5153593;27;20042;-73
2022/08/07 10:02:31;;;;;;;7.78;3.15;;;;;;;20.36;45.81;102549.47;5135161;27;20503;-73
2022/08/07 10:05:30;;;;;;;6.95;3.65;;;;;;;20.42;47.78;102548.97;5153698;27;20067;-74
2022/08/07 10:08:40;;;;;;;6.15;3.40;;;;;;;20.50;47.65;102538.75;5153166;27;20022;-72
2022/08/07 10:11:44;;;;;;;6.70;3.25;;;;;;;20.57;46.96;102543.41;5153944;27;20049;-74
2022/08/07 10:14:57;;;;;;;7.80;3.80;;;;;;;20.69;47.20;102551.28;5135157;27;20069;-75
2022/08/07 10:17:44;;;;;;;7.65;3.60;;;;;;;20.69;46.66;102541.63;5049774;28;20068;-72
2022/08/07 10:20:14;;;;;;;8.52;3.33;;;;;;;20.62;45.15;102540.41;5050540;28;20091;-76
2022/08/07 10:22:42;;;;;;;6.82;3.25;;;;;;;20.74;44.69;102536.81;5052675;28;20030;-75
2022/08/07 10:25:37;;;;;;;6.20;3.38;;;;;;;20.82;47.04;102537.06;5053028;28;20068;-75
2022/08/07 10:28:22;;;;;;;7.63;3.97;;;;;;;20.85;46.03;102536.81;5053001;28;20033;-75
2022/08/07 10:30:57;;;;;;;5.47;3.40;;;;;;;20.83;45.68;102535.25;5053011;28;20195;-76
2022/08/07 10:33:41;;;;;;;6.43;3.50;;;;;;;20.88;46.49;102527.88;5053044;28;20048;-79
2022/08/07 10:36:34;;;;;;;6.13;3.20;;;;;;;20.94;45.48;102527.34;5053072;28;20128;-76
2022/08/07 10:39:21;;;;;;;5.65;3.50;;;;;;;21.04;45.92;102530.94;5052726;28;20485;-76
2022/08/07 10:42:18;;;;;;;4.18;2.63;;;;;;;21.18;46.92;102529.81;5052929;28;20025;-77
2022/08/07 10:45:07;;;;;;;7.30;3.60;;;;;;;21.15;44.78;102511.69;5045037;28;20404;-77
2022/08/07 10:47:45;;;;;;;4.90;3.22;;;;;;;21.21;45.74;102519.03;5052729;28;20032;-77
2022/08/07 10:50:28;;;;;;;5.35;2.97;;;;;;;21.26;45.64;102501.16;5052432;28;20039;-76
2022/08/07 10:53:24;;;;;;;8.32;3.75;;;;;;;21.38;45.03;102496.69;5112137;27;20435;-75
2022/08/07 10:56:20;;;;;;;6.20;3.63;;;;;;;21.44;45.15;102510.16;5156453;27;20023;-74
2022/08/07 10:59:04;;;;;;;7.82;3.80;;;;;;;21.48;46.77;102506.31;5156627;27;20027;-75
2022/08/07 11:01:43;;;;;;;6.55;3.70;;;;;;;21.49;44.65;102512.41;5156426;27;20131;-74
2022/08/07 11:04:20;;;;;;;5.28;2.95;;;;;;;21.46;44.45;102496.91;5156430;27;20022;-76
2022/08/07 11:07:05;;;;;;;5.60;3.17;;;;;;;21.63;45.52;102504.22;5156254;27;20438;-74
2022/08/07 11:09:38;;;;;;;8.98;3.22;;;;;;;21.61;43.33;102495.59;5155944;27;20385;-75
2022/08/07 11:12:12;;;;;;;8.38;3.67;;;;;;;21.47;42.94;102503.81;5156243;27;20105;-75
2022/08/07 11:14:47;;;;;;;5.82;3.13;;;;;;;21.39;43.44;102480.78;5155988;27;20030;-76
2022/08/07 11:17:33;;;;;;;5.97;2.83;;;;;;;21.51;44.02;102493.88;5156100;27;20047;-75
2022/08/07 11:20:40;;;;;;;4.85;2.70;;;;;;;21.64;42.38;102484.84;5156146;27;20026;-73
2022/08/07 11:23:28;;;;;;;5.50;2.63;;;;;;;21.71;41.60;102483.34;5071995;28;20037;-73
2022/08/07 11:26:05;;;;;;;4.03;2.40;;;;;;;21.80;40.21;102473.03;5071551;28;20047;-74
2022/08/07 11:29:03;;;;;;;4.88;2.60;;;;;;;21.72;42.24;102463.16;5071822;28;20090;-75
2022/08/07 11:31:45;;;;;;;4.93;2.80;;;;;;;21.90;41.34;102466.84;4991752;28;20045;-73
2022/08/07 11:34:23;;;;;;;5.28;2.60;;;;;;;21.98;40.87;102467.03;4992096;28;20046;-74
2022/08/07 11:37:05;;;;;;;6.22;2.45;;;;;;;21.96;41.26;102445.28;4992733;28;20652;-74
2022/08/07 11:40:03;;;;;;;5.88;2.88;;;;;;;22.22;42.45;102468.53;4991253;28;20031;-73
2022/08/07 11:43:05;;;;;;;6.93;2.92;;;;;;;22.11;41.08;102466.00;4992969;28;20102;-78
2022/08/07 11:45:58;;;;;;;5.07;3.15;;;;;;;21.96;42.05;102457.63;4992264;28;20476;-73
2022/08/07 11:48:42;;;;;;;5.68;2.97;;;;;;;21.93;40.40;102457.88;4992125;28;20082;-72
2022/08/07 11:51:22;;;;;;;6.65;3.50;;;;;;;21.82;41.64;102460.56;4992199;28;20164;-73